sensor_id;sensor_type;location;lat;lon;timestamp;P1;durP1;ratioP1;P2;durP2;ratioP2
3006;SDS011;1513;47.650;10.720;2023-04-21T00:01:04;17.87;;;9.83;;
3006;SDS011;1513;47.650;10.720;2023-04-21T00:03:33;19.57;;;10.80;;
3006;SDS011;1513;47.650;10.720;2023-04-21T00:06:06;14.27;;;8.70;;
3006;SDS011;1513;47.650;10.720;2023-04-21T00:08:33;20.30;;;10.83;;
3006;SDS011;1513;47.650;10.720;2023-04-21T00:11:06;19.63;;;10.33;;
3006;SDS011;1513;47.650;10.720;2023-04-21T00:13:33;20.03;;;10.83;;
3006;SDS011;1513;47.650;10.720;2023-04-21T00:16:01;21.40;;;11.23;;
3006;SDS011;1513;47.650;10.720;2023-04-21T00:18:27;19.60;;;10.87;;
3006;SDS011;1513;47.650;10.720;2023-04-21T00:20:53;17.53;;;10.07;;
3006;SDS011;1513;47.650;10.720;2023-04-21T00:23:20;17.17;;;10.07;;
3006;SDS011;1513;47.650;10.720;2023-04-21T00:25:47;19.57;;;9.97;;
3006;SDS011;1513;47.650;10.720;2023-04-21T00:28:13;19.17;;;10.17;;
3006;SDS011;1513;47.650;10.720;2023-04-21T00:30:39;18.10;;;9.20;;
3006;SDS011;1513;47.650;10.720;2023-04-21T00:33:06;20.03;;;10.53;;
3006;SDS011;1513;47.650;10.720;2023-04-21T00:35:32;23.30;;;10.10;;
3006;SDS011;1513;47.650;10.720;2023-04-21T00:37:59;16.90;;;9.53;;
3006;SDS011;1513;47.650;10.720;2023-04-21T00:40:25;17.30;;;9.70;;
3006;SDS011;1513;47.650;10.720;2023-04-21T00:42:52;19.47;;;10.20;;
3006;SDS011;1513;47.650;10.720;2023-04-21T00:45:18;19.70;;;11.10;;
3006;SDS011;1513;47.650;10.720;2023-04-21T00:47:44;19.80;;;10.17;;
3006;SDS011;1513;47.650;10.720;2023-04-21T00:50:11;16.70;;;9.83;;
3006;SDS011;1513;47.650;10.720;2023-04-21T00:52:38;20.60;;;11.20;;
3006;SDS011;1513;47.650;10.720;2023-04-21T00:55:06;20.13;;;10.57;;
3006;SDS011;1513;47.650;10.720;2023-04-21T00:57:34;18.43;;;10.20;;
3006;SDS011;1513;47.650;10.720;2023-04-21T01:00:04;20.87;;;11.00;;
3006;SDS011;1513;47.650;10.720;2023-04-21T01:02:33;19.30;;;10.37;;
3006;SDS011;1513;47.650;10.720;2023-04-21T01:05:02;20.07;;;10.63;;
3006;SDS011;1513;47.650;10.720;2023-04-21T01:07:33;18.00;;;10.63;;
3006;SDS011;1513;47.650;10.720;2023-04-21T01:10:00;23.97;;;12.03;;
3006;SDS011;1513;47.650;10.720;2023-04-21T01:12:28;19.73;;;9.73;;
3006;SDS011;1513;47.650;10.720;2023-04-21T01:14:57;21.13;;;11.73;;
3006;SDS011;1513;47.650;10.720;2023-04-21T01:17:23;19.13;;;10.87;;
3006;SDS011;1513;47.650;10.720;2023-04-21T01:19:51;21.53;;;10.47;;
3006;SDS011;1513;47.650;10.720;2023-04-21T01:22:18;18.90;;;9.53;;
3006;SDS011;1513;47.650;10.720;2023-04-21T01:24:45;20.67;;;11.00;;
3006;SDS011;1513;47.650;10.720;2023-04-21T01:27:14;19.17;;;10.03;;
3006;SDS011;1513;47.650;10.720;2023-04-21T01:29:43;20.57;;;10.53;;
3006;SDS011;1513;47.650;10.720;2023-04-21T01:32:21;17.30;;;10.63;;
3006;SDS011;1513;47.650;10.720;2023-04-21T01:34:51;19.70;;;10.67;;
3006;SDS011;1513;47.650;10.720;2023-04-21T01:37:19;18.00;;;10.40;;
3006;SDS011;1513;47.650;10.720;2023-04-21T01:39:49;18.90;;;10.50;;
3006;SDS011;1513;47.650;10.720;2023-04-21T01:42:19;18.83;;;10.50;;
3006;SDS011;1513;47.650;10.720;2023-04-21T01:44:46;20.07;;;9.83;;
3006;SDS011;1513;47.650;10.720;2023-04-21T01:47:16;18.13;;;9.40;;
3006;SDS011;1513;47.650;10.720;2023-04-21T01:49:44;21.57;;;9.73;;
3006;SDS011;1513;47.650;10.720;2023-04-21T01:52:11;18.83;;;9.43;;
3006;SDS011;1513;47.650;10.720;2023-04-21T01:54:38;18.80;;;10.50;;
3006;SDS011;1513;47.650;10.720;2023-04-21T01:57:05;20.70;;;10.30;;
3006;SDS011;1513;47.650;10.720;2023-04-21T01:59:32;19.80;;;10.57;;
3006;SDS011;1513;47.650;10.720;2023-04-21T02:01:58;18.47;;;10.40;;
3006;SDS011;1513;47.650;10.720;2023-04-21T02:04:25;17.57;;;9.57;;
3006;SDS011;1513;47.650;10.720;2023-04-21T02:06:51;19.70;;;10.50;;
3006;SDS011;1513;47.650;10.720;2023-04-21T02:09:17;16.33;;;9.07;;
3006;SDS011;1513;47.650;10.720;2023-04-21T02:11:43;17.57;;;8.97;;
3006;SDS011;1513;47.650;10.720;2023-04-21T02:14:10;16.33;;;9.70;;
3006;SDS011;1513;47.650;10.720;2023-04-21T02:16:38;19.27;;;10.37;;
3006;SDS011;1513;47.650;10.720;2023-04-21T02:19:05;16.93;;;9.30;;
3006;SDS011;1513;47.650;10.720;2023-04-21T02:21:31;14.83;;;7.90;;
3006;SDS011;1513;47.650;10.720;2023-04-21T02:23:57;15.40;;;7.70;;
3006;SDS011;1513;47.650;10.720;2023-04-21T02:26:25;19.03;;;8.63;;
3006;SDS011;1513;47.650;10.720;2023-04-21T02:28:51;15.47;;;7.60;;
3006;SDS011;1513;47.650;10.720;2023-04-21T02:31:17;15.50;;;7.83;;
3006;SDS011;1513;47.650;10.720;2023-04-21T02:33:44;15.23;;;8.20;;
3006;SDS011;1513;47.650;10.720;2023-04-21T02:36:10;13.30;;;8.00;;
3006;SDS011;1513;47.650;10.720;2023-04-21T02:38:37;15.83;;;8.20;;
3006;SDS011;1513;47.650;10.720;2023-04-21T02:41:03;15.80;;;8.83;;
3006;SDS011;1513;47.650;10.720;2023-04-21T02:43:30;16.83;;;8.77;;
3006;SDS011;1513;47.650;10.720;2023-04-21T02:45:56;18.77;;;10.13;;
3006;SDS011;1513;47.650;10.720;2023-04-21T02:48:22;19.70;;;9.67;;
3006;SDS011;1513;47.650;10.720;2023-04-21T02:50:50;17.57;;;9.30;;
3006;SDS011;1513;47.650;10.720;2023-04-21T02:53:17;19.67;;;10.80;;
3006;SDS011;1513;47.650;10.720;2023-04-21T02:55:44;19.87;;;10.60;;
3006;SDS011;1513;47.650;10.720;2023-04-21T02:58:10;19.33;;;10.17;;
3006;SDS011;1513;47.650;10.720;2023-04-21T03:00:37;20.90;;;11.10;;
3006;SDS011;1513;47.650;10.720;2023-04-21T03:03:03;20.63;;;11.60;;
3006;SDS011;1513;47.650;10.720;2023-04-21T03:05:29;19.23;;;11.13;;
3006;SDS011;1513;47.650;10.720;2023-04-21T03:07:56;19.47;;;10.30;;
3006;SDS011;1513;47.650;10.720;2023-04-21T03:10:22;17.53;;;9.80;;
3006;SDS011;1513;47.650;10.720;2023-04-21T03:12:48;20.33;;;11.30;;
3006;SDS011;1513;47.650;10.720;2023-04-21T03:15:14;19.17;;;11.20;;
3006;SDS011;1513;47.650;10.720;2023-04-21T03:17:41;24.37;;;11.90;;
3006;SDS011;1513;47.650;10.720;2023-04-21T03:20:07;28.67;;;13.13;;
3006;SDS011;1513;47.650;10.720;2023-04-21T03:22:35;23.87;;;12.60;;
3006;SDS011;1513;47.650;10.720;2023-04-21T03:25:02;24.87;;;11.07;;
3006;SDS011;1513;47.650;10.720;2023-04-21T03:27:29;150.63;;;16.40;;
3006;SDS011;1513;47.650;10.720;2023-04-21T03:29:56;53.17;;;13.33;;
3006;SDS011;1513;47.650;10.720;2023-04-21T03:32:22;36.33;;;13.20;;
3006;SDS011;1513;47.650;10.720;2023-04-21T03:34:48;27.57;;;12.80;;
3006;SDS011;1513;47.650;10.720;2023-04-21T03:37:15;46.73;;;13.37;;
3006;SDS011;1513;47.650;10.720;2023-04-21T03:39:41;28.37;;;11.93;;
3006;SDS011;1513;47.650;10.720;2023-04-21T03:42:07;23.60;;;12.80;;
3006;SDS011;1513;47.650;10.720;2023-04-21T03:44:33;22.97;;;11.80;;
3006;SDS011;1513;47.650;10.720;2023-04-21T03:47:00;26.77;;;13.63;;
3006;SDS011;1513;47.650;10.720;2023-04-21T03:49:28;25.13;;;12.00;;
3006;SDS011;1513;47.650;10.720;2023-04-21T03:51:55;29.50;;;12.83;;
3006;SDS011;1513;47.650;10.720;2023-04-21T03:54:20;24.90;;;11.83;;
3006;SDS011;1513;47.650;10.720;2023-04-21T03:56:46;22.80;;;11.10;;
3006;SDS011;1513;47.650;10.720;2023-04-21T03:59:12;23.07;;;12.70;;
3006;SDS011;1513;47.650;10.720;2023-04-21T04:01:38;26.57;;;13.20;;
3006;SDS011;1513;47.650;10.720;2023-04-21T04:04:04;25.07;;;12.20;;
3006;SDS011;1513;47.650;10.720;2023-04-21T04:06:30;24.67;;;11.00;;
3006;SDS011;1513;47.650;10.720;2023-04-21T04:08:57;23.80;;;11.27;;
3006;SDS011;1513;47.650;10.720;2023-04-21T04:11:23;20.53;;;10.50;;
3006;SDS011;1513;47.650;10.720;2023-04-21T04:13:49;21.80;;;10.80;;
3006;SDS011;1513;47.650;10.720;2023-04-21T04:16:14;20.63;;;11.57;;
3006;SDS011;1513;47.650;10.720;2023-04-21T04:18:40;21.40;;;11.23;;
3006;SDS011;1513;47.650;10.720;2023-04-21T04:21:06;24.53;;;11.60;;
3006;SDS011;1513;47.650;10.720;2023-04-21T04:23:33;26.23;;;11.97;;
3006;SDS011;1513;47.650;10.720;2023-04-21T04:25:59;22.70;;;11.90;;
3006;SDS011;1513;47.650;10.720;2023-04-21T04:28:26;27.10;;;12.83;;
3006;SDS011;1513;47.650;10.720;2023-04-21T04:30:52;40.27;;;18.00;;
3006;SDS011;1513;47.650;10.720;2023-04-21T04:33:20;44.20;;;17.43;;
3006;SDS011;1513;47.650;10.720;2023-04-21T04:35:45;40.80;;;17.73;;
3006;SDS011;1513;47.650;10.720;2023-04-21T04:38:12;68.03;;;27.20;;
3006;SDS011;1513;47.650;10.720;2023-04-21T04:40:39;76.23;;;29.60;;
3006;SDS011;1513;47.650;10.720;2023-04-21T04:43:06;60.87;;;25.50;;
3006;SDS011;1513;47.650;10.720;2023-04-21T04:45:35;53.43;;;22.50;;
3006;SDS011;1513;47.650;10.720;2023-04-21T04:48:01;46.20;;;20.37;;
3006;SDS011;1513;47.650;10.720;2023-04-21T04:50:28;60.40;;;25.70;;
3006;SDS011;1513;47.650;10.720;2023-04-21T04:52:54;51.43;;;25.20;;
3006;SDS011;1513;47.650;10.720;2023-04-21T04:55:21;50.87;;;23.90;;
3006;SDS011;1513;47.650;10.720;2023-04-21T04:57:48;71.00;;;30.80;;
3006;SDS011;1513;47.650;10.720;2023-04-21T05:00:14;43.87;;;19.73;;
3006;SDS011;1513;47.650;10.720;2023-04-21T05:02:40;22.87;;;12.77;;
3006;SDS011;1513;47.650;10.720;2023-04-21T05:05:06;22.93;;;12.63;;
3006;SDS011;1513;47.650;10.720;2023-04-21T05:07:35;27.07;;;14.70;;
3006;SDS011;1513;47.650;10.720;2023-04-21T05:10:01;24.23;;;12.80;;
3006;SDS011;1513;47.650;10.720;2023-04-21T05:12:29;45.70;;;20.57;;
3006;SDS011;1513;47.650;10.720;2023-04-21T05:14:58;56.40;;;20.50;;
3006;SDS011;1513;47.650;10.720;2023-04-21T05:17:23;34.57;;;15.97;;
3006;SDS011;1513;47.650;10.720;2023-04-21T05:19:50;33.90;;;16.20;;
3006;SDS011;1513;47.650;10.720;2023-04-21T05:22:15;25.33;;;11.50;;
3006;SDS011;1513;47.650;10.720;2023-04-21T05:24:41;26.53;;;12.27;;
3006;SDS011;1513;47.650;10.720;2023-04-21T05:27:08;29.37;;;15.20;;
3006;SDS011;1513;47.650;10.720;2023-04-21T05:29:34;36.37;;;16.40;;
3006;SDS011;1513;47.650;10.720;2023-04-21T05:32:00;24.40;;;12.40;;
3006;SDS011;1513;47.650;10.720;2023-04-21T05:34:26;20.77;;;11.30;;
3006;SDS011;1513;47.650;10.720;2023-04-21T05:36:52;20.50;;;11.13;;
3006;SDS011;1513;47.650;10.720;2023-04-21T05:39:17;21.17;;;11.27;;
3006;SDS011;1513;47.650;10.720;2023-04-21T05:41:43;22.80;;;11.43;;
3006;SDS011;1513;47.650;10.720;2023-04-21T05:44:11;24.47;;;11.93;;
3006;SDS011;1513;47.650;10.720;2023-04-21T05:46:37;32.80;;;15.70;;
3006;SDS011;1513;47.650;10.720;2023-04-21T05:49:04;30.87;;;16.07;;
3006;SDS011;1513;47.650;10.720;2023-04-21T05:51:32;29.67;;;14.40;;
3006;SDS011;1513;47.650;10.720;2023-04-21T05:53:59;27.83;;;14.53;;
3006;SDS011;1513;47.650;10.720;2023-04-21T05:56:26;26.60;;;13.60;;
3006;SDS011;1513;47.650;10.720;2023-04-21T05:58:52;23.10;;;11.87;;
3006;SDS011;1513;47.650;10.720;2023-04-21T06:01:18;24.27;;;11.70;;
3006;SDS011;1513;47.650;10.720;2023-04-21T06:03:46;21.47;;;12.07;;
3006;SDS011;1513;47.650;10.720;2023-04-21T06:06:14;22.80;;;11.70;;
3006;SDS011;1513;47.650;10.720;2023-04-21T06:08:42;25.27;;;12.43;;
3006;SDS011;1513;47.650;10.720;2023-04-21T06:11:10;19.63;;;10.53;;
3006;SDS011;1513;47.650;10.720;2023-04-21T06:13:38;25.13;;;14.90;;
3006;SDS011;1513;47.650;10.720;2023-04-21T06:16:07;21.03;;;11.53;;
3006;SDS011;1513;47.650;10.720;2023-04-21T06:18:36;20.17;;;10.60;;
3006;SDS011;1513;47.650;10.720;2023-04-21T06:21:03;19.90;;;10.77;;
3006;SDS011;1513;47.650;10.720;2023-04-21T06:23:30;16.73;;;8.63;;
3006;SDS011;1513;47.650;10.720;2023-04-21T06:26:01;16.83;;;9.00;;
3006;SDS011;1513;47.650;10.720;2023-04-21T06:28:33;16.10;;;9.37;;
3006;SDS011;1513;47.650;10.720;2023-04-21T06:31:00;16.73;;;9.40;;
3006;SDS011;1513;47.650;10.720;2023-04-21T06:33:28;15.57;;;9.20;;
3006;SDS011;1513;47.650;10.720;2023-04-21T06:35:54;12.77;;;7.90;;
3006;SDS011;1513;47.650;10.720;2023-04-21T06:38:21;14.57;;;8.90;;
3006;SDS011;1513;47.650;10.720;2023-04-21T06:40:47;12.53;;;8.10;;
3006;SDS011;1513;47.650;10.720;2023-04-21T06:43:14;14.50;;;8.43;;
3006;SDS011;1513;47.650;10.720;2023-04-21T06:45:40;16.13;;;9.73;;
3006;SDS011;1513;47.650;10.720;2023-04-21T06:48:07;15.00;;;8.53;;
3006;SDS011;1513;47.650;10.720;2023-04-21T06:50:33;11.50;;;8.00;;
3006;SDS011;1513;47.650;10.720;2023-04-21T06:52:59;9.53;;;7.07;;
3006;SDS011;1513;47.650;10.720;2023-04-21T06:55:26;9.23;;;6.23;;
3006;SDS011;1513;47.650;10.720;2023-04-21T06:57:52;8.63;;;6.43;;
3006;SDS011;1513;47.650;10.720;2023-04-21T07:00:18;7.63;;;5.93;;
3006;SDS011;1513;47.650;10.720;2023-04-21T07:02:45;7.90;;;5.80;;
3006;SDS011;1513;47.650;10.720;2023-04-21T07:05:11;7.53;;;6.10;;
3006;SDS011;1513;47.650;10.720;2023-04-21T07:07:37;6.17;;;5.57;;
3006;SDS011;1513;47.650;10.720;2023-04-21T07:10:04;8.83;;;6.50;;
3006;SDS011;1513;47.650;10.720;2023-04-21T07:12:31;8.03;;;6.00;;
3006;SDS011;1513;47.650;10.720;2023-04-21T07:14:57;7.23;;;6.07;;
3006;SDS011;1513;47.650;10.720;2023-04-21T07:17:23;8.93;;;6.00;;
3006;SDS011;1513;47.650;10.720;2023-04-21T07:19:50;9.10;;;6.63;;
3006;SDS011;1513;47.650;10.720;2023-04-21T07:22:16;7.13;;;6.20;;
3006;SDS011;1513;47.650;10.720;2023-04-21T07:24:42;6.73;;;5.43;;
3006;SDS011;1513;47.650;10.720;2023-04-21T07:27:08;6.37;;;5.60;;
3006;SDS011;1513;47.650;10.720;2023-04-21T07:29:35;5.40;;;4.90;;
3006;SDS011;1513;47.650;10.720;2023-04-21T07:32:01;8.20;;;6.47;;
3006;SDS011;1513;47.650;10.720;2023-04-21T07:34:28;5.60;;;5.10;;
3006;SDS011;1513;47.650;10.720;2023-04-21T07:36:54;5.33;;;4.83;;
3006;SDS011;1513;47.650;10.720;2023-04-21T07:39:20;7.70;;;6.60;;
3006;SDS011;1513;47.650;10.720;2023-04-21T07:41:47;7.17;;;6.23;;
3006;SDS011;1513;47.650;10.720;2023-04-21T07:44:13;6.20;;;5.60;;
3006;SDS011;1513;47.650;10.720;2023-04-21T07:46:39;6.47;;;5.87;;
3006;SDS011;1513;47.650;10.720;2023-04-21T07:49:06;8.23;;;6.00;;
3006;SDS011;1513;47.650;10.720;2023-04-21T07:51:32;7.90;;;6.20;;
3006;SDS011;1513;47.650;10.720;2023-04-21T07:53:58;6.43;;;5.60;;
3006;SDS011;1513;47.650;10.720;2023-04-21T07:56:24;6.87;;;5.67;;
3006;SDS011;1513;47.650;10.720;2023-04-21T07:58:51;7.43;;;5.30;;
3006;SDS011;1513;47.650;10.720;2023-04-21T08:01:17;5.97;;;5.37;;
3006;SDS011;1513;47.650;10.720;2023-04-21T08:03:44;7.27;;;5.50;;
3006;SDS011;1513;47.650;10.720;2023-04-21T08:06:10;6.07;;;5.43;;
3006;SDS011;1513;47.650;10.720;2023-04-21T08:08:37;10.37;;;6.80;;
3006;SDS011;1513;47.650;10.720;2023-04-21T08:11:03;7.40;;;5.60;;
3006;SDS011;1513;47.650;10.720;2023-04-21T08:13:30;5.43;;;4.87;;
3006;SDS011;1513;47.650;10.720;2023-04-21T08:15:56;4.23;;;3.83;;
3006;SDS011;1513;47.650;10.720;2023-04-21T08:18:23;4.60;;;3.67;;
3006;SDS011;1513;47.650;10.720;2023-04-21T08:20:49;5.70;;;4.80;;
3006;SDS011;1513;47.650;10.720;2023-04-21T08:23:16;6.03;;;5.07;;
3006;SDS011;1513;47.650;10.720;2023-04-21T08:25:43;5.03;;;4.53;;
3006;SDS011;1513;47.650;10.720;2023-04-21T08:28:10;6.77;;;5.50;;
3006;SDS011;1513;47.650;10.720;2023-04-21T08:30:36;7.50;;;6.10;;
3006;SDS011;1513;47.650;10.720;2023-04-21T08:33:02;7.70;;;5.93;;
3006;SDS011;1513;47.650;10.720;2023-04-21T08:35:28;12.80;;;6.77;;
3006;SDS011;1513;47.650;10.720;2023-04-21T08:37:55;8.23;;;6.00;;
3006;SDS011;1513;47.650;10.720;2023-04-21T08:40:23;7.03;;;5.90;;
3006;SDS011;1513;47.650;10.720;2023-04-21T08:42:56;6.73;;;5.13;;
3006;SDS011;1513;47.650;10.720;2023-04-21T08:45:22;6.27;;;5.07;;
3006;SDS011;1513;47.650;10.720;2023-04-21T08:47:49;5.80;;;4.77;;
3006;SDS011;1513;47.650;10.720;2023-04-21T08:50:16;6.30;;;4.80;;
3006;SDS011;1513;47.650;10.720;2023-04-21T08:52:44;12.83;;;7.90;;
3006;SDS011;1513;47.650;10.720;2023-04-21T08:55:10;5.00;;;4.50;;
3006;SDS011;1513;47.650;10.720;2023-04-21T08:57:37;7.43;;;5.37;;
3006;SDS011;1513;47.650;10.720;2023-04-21T09:00:04;6.13;;;5.43;;
3006;SDS011;1513;47.650;10.720;2023-04-21T09:02:31;7.00;;;5.50;;
3006;SDS011;1513;47.650;10.720;2023-04-21T09:04:57;4.70;;;4.20;;
3006;SDS011;1513;47.650;10.720;2023-04-21T09:07:33;5.07;;;4.30;;
3006;SDS011;1513;47.650;10.720;2023-04-21T09:10:01;3.40;;;3.10;;
3006;SDS011;1513;47.650;10.720;2023-04-21T09:12:29;3.10;;;2.80;;
3006;SDS011;1513;47.650;10.720;2023-04-21T09:14:55;3.13;;;2.83;;
3006;SDS011;1513;47.650;10.720;2023-04-21T09:17:28;2.60;;;2.40;;
3006;SDS011;1513;47.650;10.720;2023-04-21T09:20:21;2.97;;;2.60;;
3006;SDS011;1513;47.650;10.720;2023-04-21T09:22:47;3.53;;;2.70;;
3006;SDS011;1513;47.650;10.720;2023-04-21T09:25:15;2.73;;;2.53;;
3006;SDS011;1513;47.650;10.720;2023-04-21T09:27:45;2.73;;;2.43;;
3006;SDS011;1513;47.650;10.720;2023-04-21T09:30:12;3.60;;;3.30;;
3006;SDS011;1513;47.650;10.720;2023-04-21T09:32:39;2.90;;;2.43;;
3006;SDS011;1513;47.650;10.720;2023-04-21T09:35:09;2.30;;;2.10;;
3006;SDS011;1513;47.650;10.720;2023-04-21T09:37:36;3.30;;;3.00;;
3006;SDS011;1513;47.650;10.720;2023-04-21T09:40:03;8.13;;;3.13;;
3006;SDS011;1513;47.650;10.720;2023-04-21T09:42:30;2.53;;;2.37;;
3006;SDS011;1513;47.650;10.720;2023-04-21T09:44:57;2.73;;;2.53;;
3006;SDS011;1513;47.650;10.720;2023-04-21T09:47:23;3.03;;;2.80;;
3006;SDS011;1513;47.650;10.720;2023-04-21T09:49:53;2.60;;;2.40;;
3006;SDS011;1513;47.650;10.720;2023-04-21T09:52:19;3.17;;;2.87;;
3006;SDS011;1513;47.650;10.720;2023-04-21T09:54:48;4.03;;;3.43;;
3006;SDS011;1513;47.650;10.720;2023-04-21T09:57:23;3.03;;;2.83;;
3006;SDS011;1513;47.650;10.720;2023-04-21T09:59:53;2.70;;;2.50;;
3006;SDS011;1513;47.650;10.720;2023-04-21T10:02:44;3.23;;;2.93;;
3006;SDS011;1513;47.650;10.720;2023-04-21T10:05:13;2.97;;;2.63;;
3006;SDS011;1513;47.650;10.720;2023-04-21T10:07:39;3.80;;;2.47;;
3006;SDS011;1513;47.650;10.720;2023-04-21T10:10:06;2.33;;;2.13;;
3006;SDS011;1513;47.650;10.720;2023-04-21T10:12:37;2.60;;;2.40;;
3006;SDS011;1513;47.650;10.720;2023-04-21T10:15:04;2.30;;;2.10;;
3006;SDS011;1513;47.650;10.720;2023-04-21T10:17:33;2.87;;;2.63;;
3006;SDS011;1513;47.650;10.720;2023-04-21T10:20:05;3.00;;;2.50;;
3006;SDS011;1513;47.650;10.720;2023-04-21T10:22:34;1.90;;;1.80;;
3006;SDS011;1513;47.650;10.720;2023-04-21T10:25:03;2.10;;;2.00;;
3006;SDS011;1513;47.650;10.720;2023-04-21T10:27:33;4.90;;;1.73;;
3006;SDS011;1513;47.650;10.720;2023-04-21T10:30:18;2.47;;;2.27;;
3006;SDS011;1513;47.650;10.720;2023-04-21T10:32:47;2.83;;;2.00;;
3006;SDS011;1513;47.650;10.720;2023-04-21T10:35:22;2.57;;;2.37;;
3006;SDS011;1513;47.650;10.720;2023-04-21T10:37:49;1.67;;;1.43;;
3006;SDS011;1513;47.650;10.720;2023-04-21T10:42:54;1.53;;;1.43;;
3006;SDS011;1513;47.650;10.720;2023-04-21T10:45:23;1.53;;;1.47;;
3006;SDS011;1513;47.650;10.720;2023-04-21T10:47:51;1.70;;;1.60;;
3006;SDS011;1513;47.650;10.720;2023-04-21T10:53:06;1.53;;;1.40;;
3006;SDS011;1513;47.650;10.720;2023-04-21T10:55:34;1.60;;;1.50;;
3006;SDS011;1513;47.650;10.720;2023-04-21T10:58:01;1.60;;;1.30;;
3006;SDS011;1513;47.650;10.720;2023-04-21T11:00:28;3.17;;;2.97;;
3006;SDS011;1513;47.650;10.720;2023-04-21T11:02:56;2.23;;;2.00;;
3006;SDS011;1513;47.650;10.720;2023-04-21T11:05:41;1.70;;;1.60;;
3006;SDS011;1513;47.650;10.720;2023-04-21T11:08:09;1.70;;;1.60;;
3006;SDS011;1513;47.650;10.720;2023-04-21T11:13:16;2.13;;;1.90;;
3006;SDS011;1513;47.650;10.720;2023-04-21T11:15:55;1.63;;;1.53;;
3006;SDS011;1513;47.650;10.720;2023-04-21T11:18:36;2.03;;;1.80;;
3006;SDS011;1513;47.650;10.720;2023-04-21T11:21:11;1.87;;;1.77;;
3006;SDS011;1513;47.650;10.720;2023-04-21T11:23:50;1.80;;;1.70;;
3006;SDS011;1513;47.650;10.720;2023-04-21T11:26:29;1.37;;;1.30;;
3006;SDS011;1513;47.650;10.720;2023-04-21T11:29:07;1.60;;;1.50;;
3006;SDS011;1513;47.650;10.720;2023-04-21T11:31:34;1.70;;;1.37;;
3006;SDS011;1513;47.650;10.720;2023-04-21T11:34:02;1.30;;;1.20;;
3006;SDS011;1513;47.650;10.720;2023-04-21T11:36:32;1.67;;;1.60;;
3006;SDS011;1513;47.650;10.720;2023-04-21T11:39:04;1.50;;;1.40;;
3006;SDS011;1513;47.650;10.720;2023-04-21T11:41:32;1.20;;;1.10;;
3006;SDS011;1513;47.650;10.720;2023-04-21T11:44:00;1.23;;;1.23;;
3006;SDS011;1513;47.650;10.720;2023-04-21T11:46:27;1.83;;;1.50;;
3006;SDS011;1513;47.650;10.720;2023-04-21T11:49:03;1.83;;;1.73;;
3006;SDS011;1513;47.650;10.720;2023-04-21T11:51:37;1.80;;;1.70;;
3006;SDS011;1513;47.650;10.720;2023-04-21T11:54:07;2.43;;;1.83;;
3006;SDS011;1513;47.650;10.720;2023-04-21T11:56:35;1.70;;;1.60;;
3006;SDS011;1513;47.650;10.720;2023-04-21T12:01:42;3.80;;;1.13;;
3006;SDS011;1513;47.650;10.720;2023-04-21T12:04:12;1.40;;;1.30;;
3006;SDS011;1513;47.650;10.720;2023-04-21T12:06:43;1.23;;;1.13;;
3006;SDS011;1513;47.650;10.720;2023-04-21T12:09:19;2.57;;;1.30;;
3006;SDS011;1513;47.650;10.720;2023-04-21T12:11:50;1.67;;;1.57;;
3006;SDS011;1513;47.650;10.720;2023-04-21T12:14:18;3.40;;;1.37;;
3006;SDS011;1513;47.650;10.720;2023-04-21T12:16:49;1.30;;;1.20;;
3006;SDS011;1513;47.650;10.720;2023-04-21T12:19:22;1.47;;;1.40;;
3006;SDS011;1513;47.650;10.720;2023-04-21T12:21:54;1.43;;;1.37;;
3006;SDS011;1513;47.650;10.720;2023-04-21T12:24:23;1.43;;;1.43;;
3006;SDS011;1513;47.650;10.720;2023-04-21T12:26:49;2.90;;;1.47;;
3006;SDS011;1513;47.650;10.720;2023-04-21T12:29:15;1.90;;;1.20;;
3006;SDS011;1513;47.650;10.720;2023-04-21T12:31:42;1.93;;;1.07;;
3006;SDS011;1513;47.650;10.720;2023-04-21T12:34:08;1.40;;;1.40;;
3006;SDS011;1513;47.650;10.720;2023-04-21T12:36:34;1.60;;;1.50;;
3006;SDS011;1513;47.650;10.720;2023-04-21T12:39:01;1.50;;;1.40;;
3006;SDS011;1513;47.650;10.720;2023-04-21T12:41:27;1.63;;;1.53;;
3006;SDS011;1513;47.650;10.720;2023-04-21T12:43:53;1.77;;;1.63;;
3006;SDS011;1513;47.650;10.720;2023-04-21T12:46:19;2.20;;;1.50;;
3006;SDS011;1513;47.650;10.720;2023-04-21T12:48:46;1.43;;;1.37;;
3006;SDS011;1513;47.650;10.720;2023-04-21T12:51:12;1.10;;;1.10;;
3006;SDS011;1513;47.650;10.720;2023-04-21T12:53:39;1.77;;;1.10;;
3006;SDS011;1513;47.650;10.720;2023-04-21T12:56:05;1.47;;;1.37;;
3006;SDS011;1513;47.650;10.720;2023-04-21T12:58:31;1.20;;;1.20;;
3006;SDS011;1513;47.650;10.720;2023-04-21T13:00:58;1.43;;;1.33;;
3006;SDS011;1513;47.650;10.720;2023-04-21T13:03:24;1.30;;;1.30;;
3006;SDS011;1513;47.650;10.720;2023-04-21T13:05:51;1.00;;;1.00;;
3006;SDS011;1513;47.650;10.720;2023-04-21T13:08:17;1.20;;;1.20;;
3006;SDS011;1513;47.650;10.720;2023-04-21T13:10:43;1.20;;;1.20;;
3006;SDS011;1513;47.650;10.720;2023-04-21T13:13:10;1.10;;;1.10;;
3006;SDS011;1513;47.650;10.720;2023-04-21T13:15:36;1.03;;;1.03;;
3006;SDS011;1513;47.650;10.720;2023-04-21T13:18:02;0.90;;;0.90;;
3006;SDS011;1513;47.650;10.720;2023-04-21T13:20:29;1.10;;;1.10;;
3006;SDS011;1513;47.650;10.720;2023-04-21T13:22:55;1.70;;;1.30;;
3006;SDS011;1513;47.650;10.720;2023-04-21T13:25:21;1.43;;;1.20;;
3006;SDS011;1513;47.650;10.720;2023-04-21T13:27:47;2.60;;;1.10;;
3006;SDS011;1513;47.650;10.720;2023-04-21T13:30:14;1.33;;;1.20;;
3006;SDS011;1513;47.650;10.720;2023-04-21T13:32:41;4.07;;;1.30;;
3006;SDS011;1513;47.650;10.720;2023-04-21T13:35:08;1.20;;;1.20;;
3006;SDS011;1513;47.650;10.720;2023-04-21T13:37:35;1.20;;;1.20;;
3006;SDS011;1513;47.650;10.720;2023-04-21T13:40:02;2.50;;;1.50;;
3006;SDS011;1513;47.650;10.720;2023-04-21T13:42:30;1.77;;;1.67;;
3006;SDS011;1513;47.650;10.720;2023-04-21T13:44:58;2.83;;;1.80;;
3006;SDS011;1513;47.650;10.720;2023-04-21T13:47:26;1.80;;;1.70;;
3006;SDS011;1513;47.650;10.720;2023-04-21T13:49:56;1.93;;;1.83;;
3006;SDS011;1513;47.650;10.720;2023-04-21T13:52:22;1.60;;;1.50;;
3006;SDS011;1513;47.650;10.720;2023-04-21T13:54:49;4.00;;;1.47;;
3006;SDS011;1513;47.650;10.720;2023-04-21T13:57:16;2.67;;;1.77;;
3006;SDS011;1513;47.650;10.720;2023-04-21T13:59:42;1.70;;;1.60;;
3006;SDS011;1513;47.650;10.720;2023-04-21T14:02:09;1.50;;;1.40;;
3006;SDS011;1513;47.650;10.720;2023-04-21T14:04:35;2.33;;;2.13;;
3006;SDS011;1513;47.650;10.720;2023-04-21T14:07:02;1.70;;;1.60;;
3006;SDS011;1513;47.650;10.720;2023-04-21T14:09:28;2.30;;;1.73;;
3006;SDS011;1513;47.650;10.720;2023-04-21T14:11:54;1.47;;;1.37;;
3006;SDS011;1513;47.650;10.720;2023-04-21T14:14:21;1.40;;;1.40;;
3006;SDS011;1513;47.650;10.720;2023-04-21T14:16:47;1.60;;;1.50;;
3006;SDS011;1513;47.650;10.720;2023-04-21T14:19:14;1.40;;;1.30;;
3006;SDS011;1513;47.650;10.720;2023-04-21T14:21:40;4.37;;;1.90;;
3006;SDS011;1513;47.650;10.720;2023-04-21T14:24:07;2.33;;;1.60;;
3006;SDS011;1513;47.650;10.720;2023-04-21T14:26:34;2.97;;;2.30;;
3006;SDS011;1513;47.650;10.720;2023-04-21T14:29:00;2.33;;;2.13;;
3006;SDS011;1513;47.650;10.720;2023-04-21T14:31:27;2.93;;;2.13;;
3006;SDS011;1513;47.650;10.720;2023-04-21T14:33:53;2.13;;;1.93;;
3006;SDS011;1513;47.650;10.720;2023-04-21T14:36:20;2.50;;;2.30;;
3006;SDS011;1513;47.650;10.720;2023-04-21T14:38:46;2.23;;;2.03;;
3006;SDS011;1513;47.650;10.720;2023-04-21T14:41:12;2.10;;;2.00;;
3006;SDS011;1513;47.650;10.720;2023-04-21T14:43:39;2.10;;;1.90;;
3006;SDS011;1513;47.650;10.720;2023-04-21T14:46:05;1.50;;;1.40;;
3006;SDS011;1513;47.650;10.720;2023-04-21T14:48:31;1.60;;;1.50;;
3006;SDS011;1513;47.650;10.720;2023-04-21T14:50:58;1.60;;;1.50;;
3006;SDS011;1513;47.650;10.720;2023-04-21T14:53:25;1.93;;;1.83;;
3006;SDS011;1513;47.650;10.720;2023-04-21T14:55:51;2.30;;;2.10;;
3006;SDS011;1513;47.650;10.720;2023-04-21T14:58:17;2.10;;;1.87;;
3006;SDS011;1513;47.650;10.720;2023-04-21T15:00:43;1.83;;;1.73;;
3006;SDS011;1513;47.650;10.720;2023-04-21T15:03:10;2.30;;;2.10;;